createdAt,value
2023-01-22T00:08:46.811Z,3.22
2023-01-22T00:11:16.782Z,3.55
2023-01-22T00:13:45.294Z,7.57
2023-01-22T00:16:15.035Z,11.00
2023-01-22T00:18:43.566Z,2.70
2023-01-22T00:21:12.791Z,7.90
2023-01-22T00:24:35.604Z,5.40
2023-01-22T00:27:05.247Z,2.05
2023-01-22T00:29:33.675Z,1.05
2023-01-22T00:34:52.338Z,5.60
2023-01-22T00:37:21.134Z,5.50
2023-01-22T00:39:49.320Z,3.33
2023-01-22T00:42:18.848Z,1.35
2023-01-22T00:44:46.967Z,4.43
2023-01-22T00:47:15.089Z,3.30
2023-01-22T00:49:43.220Z,4.30
2023-01-22T00:52:11.390Z,1.92
2023-01-22T00:54:39.762Z,4.05
2023-01-22T00:57:07.954Z,3.20
2023-01-22T01:00:09.613Z,3.85
2023-01-22T01:02:58.346Z,3.22
2023-01-22T01:05:26.522Z,4.20
2023-01-22T01:07:54.716Z,0.77
2023-01-22T01:10:22.953Z,2.28
2023-01-22T01:12:51.153Z,1.65
2023-01-22T01:15:20.622Z,2.15
2023-01-22T01:17:48.792Z,3.10
2023-01-22T01:20:17.748Z,2.72
2023-01-22T01:22:46.012Z,1.90
2023-01-22T01:25:14.151Z,3.33
2023-01-22T01:27:42.242Z,2.70
2023-01-22T01:30:11.702Z,1.60
2023-01-22T01:32:41.309Z,2.40
2023-01-22T01:35:10.309Z,2.30
2023-01-22T01:37:38.574Z,6.15
2023-01-22T01:40:08.215Z,6.22
2023-01-22T01:42:40.153Z,2.58
2023-01-22T01:45:26.503Z,4.68
2023-01-22T01:48:02.398Z,1.95
2023-01-22T01:50:30.824Z,2.28
2023-01-22T01:53:01.790Z,1.73
2023-01-22T01:55:32.743Z,0.65
2023-01-22T01:58:05.002Z,2.05
2023-01-22T02:00:36.095Z,1.48
2023-01-22T02:03:05.740Z,1.55
2023-01-22T02:05:38.216Z,1.65
2023-01-22T02:08:07.598Z,1.67
2023-01-22T02:10:35.749Z,0.88
2023-01-22T02:13:09.367Z,2.08
2023-01-22T02:15:38.390Z,1.33
2023-01-22T02:18:08.478Z,1.27
2023-01-22T02:20:38.927Z,1.90
2023-01-22T02:23:07.437Z,2.65
2023-01-22T02:25:35.639Z,0.25
2023-01-22T02:28:03.968Z,2.10
2023-01-22T02:30:32.092Z,2.67
2023-01-22T02:33:00.279Z,1.23
2023-01-22T02:35:28.381Z,1.40
2023-01-22T02:37:57.836Z,2.00
2023-01-22T02:40:26.068Z,3.58
2023-01-22T02:42:54.419Z,2.45
2023-01-22T02:45:22.704Z,1.50
2023-01-22T02:47:51.482Z,3.38
2023-01-22T02:50:20.455Z,1.58
2023-01-22T02:52:48.659Z,3.03
2023-01-22T02:55:18.323Z,2.30
2023-01-22T02:57:46.771Z,2.30
2023-01-22T03:00:16.288Z,0.68
2023-01-22T03:02:44.841Z,1.73
2023-01-22T03:05:12.940Z,1.52
2023-01-22T03:07:44.958Z,2.92
2023-01-22T03:10:16.515Z,3.30
2023-01-22T03:13:04.587Z,1.90
2023-01-22T03:15:50.581Z,0.63
2023-01-22T03:18:36.586Z,1.75
2023-01-22T03:21:17.125Z,3.22
2023-01-22T03:23:47.947Z,4.30
2023-01-22T03:26:16.700Z,2.75
2023-01-22T03:28:47.044Z,2.63
2023-01-22T03:31:16.867Z,1.92
2023-01-22T03:33:45.717Z,3.63
2023-01-22T03:36:16.485Z,3.50
2023-01-22T03:38:46.737Z,2.97
2023-01-22T03:41:16.851Z,1.42
2023-01-22T03:43:47.487Z,1.02
2023-01-22T03:46:18.079Z,1.67
2023-01-22T03:48:46.574Z,2.77
2023-01-22T03:51:16.692Z,3.58
2023-01-22T03:53:45.593Z,0.57
2023-01-22T03:56:15.652Z,1.48
2023-01-22T03:58:45.506Z,2.05
2023-01-22T04:01:16.311Z,1.98
2023-01-22T04:03:44.827Z,1.50
2023-01-22T04:06:13.979Z,1.80
2023-01-22T04:08:44.197Z,0.73
2023-01-22T04:11:12.959Z,0.80
2023-01-22T04:13:44.388Z,2.85
2023-01-22T04:16:15.317Z,1.13
2023-01-22T04:18:44.142Z,4.60
2023-01-22T04:21:13.045Z,2.55
2023-01-22T04:23:41.201Z,3.80
2023-01-22T04:26:09.442Z,2.22
2023-01-22T04:28:37.982Z,1.65
2023-01-22T04:31:09.037Z,1.75
2023-01-22T04:33:38.694Z,3.55
2023-01-22T04:36:07.381Z,2.78
2023-01-22T04:38:35.520Z,2.60
2023-01-22T04:41:03.711Z,1.67
2023-01-22T04:43:32.087Z,2.28
2023-01-22T04:46:00.218Z,2.53
2023-01-22T04:48:28.364Z,2.28
2023-01-22T04:50:58.237Z,0.73
2023-01-22T04:53:26.323Z,2.40
2023-01-22T04:55:54.758Z,2.00
2023-01-22T04:58:23.331Z,1.75
2023-01-22T05:00:51.534Z,2.30
2023-01-22T05:03:19.683Z,2.03
2023-01-22T05:05:48.017Z,1.67
2023-01-22T05:08:17.487Z,2.00
2023-01-22T05:10:45.781Z,2.35
2023-01-22T05:13:13.884Z,2.00
2023-01-22T05:15:42.444Z,1.02
2023-01-22T05:18:10.554Z,2.42
2023-01-22T05:20:38.661Z,2.33
2023-01-22T05:23:07.054Z,2.50
2023-01-22T05:25:36.556Z,2.72
2023-01-22T05:28:04.741Z,2.67
2023-01-22T05:30:33.003Z,1.88
2023-01-22T05:33:01.152Z,1.58
2023-01-22T05:35:29.702Z,2.25
2023-01-22T05:37:58.610Z,2.58
2023-01-22T05:40:26.723Z,1.27
2023-01-22T05:42:56.326Z,2.22
2023-01-22T05:45:24.533Z,1.33
2023-01-22T05:47:54.067Z,1.63
2023-01-22T05:50:22.366Z,1.98
2023-01-22T05:52:55.743Z,4.43
2023-01-22T05:55:24.175Z,1.10
2023-01-22T05:57:52.317Z,1.40
2023-01-22T06:00:22.623Z,0.68
2023-01-22T06:02:50.781Z,2.17
2023-01-22T06:05:19.305Z,2.47
2023-01-22T06:07:47.423Z,2.20
2023-01-22T06:10:16.179Z,2.45
2023-01-22T06:12:44.823Z,1.23
2023-01-22T06:15:13.486Z,1.98
2023-01-22T06:17:43.319Z,1.50
2023-01-22T06:20:12.447Z,1.90
2023-01-22T06:22:40.948Z,0.35
2023-01-22T06:25:10.064Z,1.23
2023-01-22T06:27:38.436Z,1.73
2023-01-22T06:30:08.192Z,1.40
2023-01-22T06:32:36.676Z,1.30
2023-01-22T06:35:07.308Z,1.73
2023-01-22T06:37:35.399Z,0.70
2023-01-22T06:40:03.559Z,2.15
2023-01-22T06:42:31.877Z,1.17
2023-01-22T06:45:00.209Z,1.45
2023-01-22T06:47:28.513Z,1.38
2023-01-22T06:49:56.606Z,1.23
2023-01-22T06:52:26.235Z,1.70
2023-01-22T06:54:54.390Z,2.00
2023-01-22T06:57:22.719Z,2.28
2023-01-22T06:59:50.821Z,2.30
2023-01-22T07:02:20.346Z,1.10
2023-01-22T07:04:48.888Z,1.02
2023-01-22T07:07:17.060Z,1.77
2023-01-22T07:09:46.782Z,1.42
2023-01-22T07:12:15.373Z,2.17
2023-01-22T07:14:43.501Z,1.00
2023-01-22T07:17:11.675Z,4.00
2023-01-22T07:19:39.753Z,1.67
2023-01-22T07:22:08.182Z,3.40
2023-01-22T07:24:36.288Z,3.85
2023-01-22T07:27:05.834Z,2.10
2023-01-22T07:29:34.103Z,1.83
2023-01-22T07:32:02.203Z,2.25
2023-01-22T07:34:30.628Z,1.20
2023-01-22T07:36:59.033Z,1.43
2023-01-22T07:39:27.130Z,2.53
2023-01-22T07:41:55.707Z,1.75
2023-01-22T07:44:25.240Z,3.33
2023-01-22T07:46:53.715Z,1.98
2023-01-22T07:49:21.883Z,2.67
2023-01-22T07:51:50.382Z,2.33
2023-01-22T07:54:20.398Z,2.25
2023-01-22T07:56:48.476Z,1.70
2023-01-22T07:59:16.738Z,2.88
2023-01-22T08:01:46.531Z,2.00
2023-01-22T08:04:14.937Z,1.83
2023-01-22T08:06:43.039Z,2.13
2023-01-22T08:09:11.117Z,2.45
2023-01-22T08:11:39.230Z,1.75
2023-01-22T08:14:07.332Z,2.35
2023-01-22T08:16:36.067Z,1.58
2023-01-22T08:19:05.605Z,2.42
2023-01-22T08:21:34.059Z,2.60
2023-01-22T08:24:02.252Z,1.98
2023-01-22T08:26:30.556Z,2.30
2023-01-22T08:28:58.700Z,3.03
2023-01-22T08:31:28.519Z,2.67
2023-01-22T08:33:59.228Z,2.33
2023-01-22T08:36:29.145Z,2.00
2023-01-22T08:38:57.517Z,2.13
2023-01-22T08:41:26.116Z,2.22
2023-01-22T08:43:54.672Z,2.85
2023-01-22T08:46:22.901Z,1.95
2023-01-22T08:48:51.883Z,2.58
2023-01-22T08:51:20.361Z,3.67
2023-01-22T08:53:50.090Z,2.20
2023-01-22T08:56:18.288Z,2.25
2023-01-22T08:58:50.480Z,2.33
2023-01-22T09:01:19.990Z,2.33
2023-01-22T09:03:48.773Z,1.25
2023-01-22T09:06:17.270Z,2.95
2023-01-22T09:08:45.415Z,2.50
2023-01-22T09:11:14.896Z,3.08
2023-01-22T09:13:43.397Z,2.25
2023-01-22T09:16:11.799Z,4.13
2023-01-22T09:18:40.625Z,0.90
2023-01-22T09:21:09.334Z,2.20
2023-01-22T09:23:37.460Z,2.47
2023-01-22T09:26:05.915Z,1.88
2023-01-22T09:28:36.248Z,1.85
2023-01-22T09:31:04.737Z,1.65
2023-01-22T09:33:32.884Z,2.22
2023-01-22T09:36:09.307Z,2.63
2023-01-22T09:38:37.422Z,3.33
2023-01-22T09:41:14.065Z,2.55
2023-01-22T09:43:50.741Z,2.78
2023-01-22T09:46:26.137Z,2.42
2023-01-22T09:48:58.500Z,1.77
2023-01-22T09:51:26.876Z,2.30
2023-01-22T09:53:59.811Z,1.48
2023-01-22T09:56:35.089Z,1.67
2023-01-22T09:59:06.736Z,2.83
2023-01-22T10:01:36.233Z,2.83
2023-01-22T10:04:22.375Z,2.38
2023-01-22T10:06:52.287Z,2.83
2023-01-22T10:09:22.447Z,2.05
2023-01-22T10:11:53.774Z,4.70
2023-01-22T10:14:27.049Z,2.80
2023-01-22T10:16:55.839Z,3.30
2023-01-22T10:19:28.813Z,0.70
2023-01-22T10:22:01.061Z,3.05
2023-01-22T10:24:30.252Z,2.33
2023-01-22T10:26:59.886Z,2.97
2023-01-22T10:29:33.024Z,4.78
2023-01-22T10:32:02.483Z,4.07
2023-01-22T10:34:33.241Z,3.53
2023-01-22T10:37:04.456Z,2.65
2023-01-22T10:39:40.609Z,2.58
2023-01-22T10:42:16.610Z,4.22
2023-01-22T10:44:46.594Z,4.43
2023-01-22T10:47:20.870Z,4.03
2023-01-22T10:49:49.998Z,2.60
2023-01-22T10:52:24.707Z,2.88
2023-01-22T10:54:56.591Z,2.95
2023-01-22T10:57:29.243Z,3.25
2023-01-22T11:00:05.842Z,2.83
2023-01-22T11:02:35.975Z,2.00
2023-01-22T11:05:18.585Z,4.05
2023-01-22T11:07:49.115Z,2.80
2023-01-22T11:10:22.619Z,5.68
2023-01-22T11:12:57.537Z,2.97
2023-01-22T11:15:35.874Z,3.45
2023-01-22T11:18:06.062Z,3.30
2023-01-22T11:20:47.039Z,3.50
2023-01-22T11:23:20.196Z,4.95
2023-01-22T11:25:57.493Z,3.88
2023-01-22T11:28:41.579Z,4.38
2023-01-22T11:31:47.665Z,3.17
2023-01-22T11:34:43.891Z,5.28
2023-01-22T11:37:15.546Z,4.25
2023-01-22T11:40:15.037Z,5.22
2023-01-22T11:42:55.660Z,4.20
2023-01-22T11:45:42.275Z,3.65
2023-01-22T11:48:28.600Z,5.07
2023-01-22T11:51:07.698Z,5.28
2023-01-22T11:53:51.594Z,5.32
2023-01-22T11:56:31.354Z,5.30
2023-01-22T11:59:04.216Z,4.43
2023-01-22T12:01:46.888Z,3.63
2023-01-22T12:04:51.816Z,5.30
2023-01-22T12:07:36.466Z,5.38
2023-01-22T12:10:26.182Z,3.88
2023-01-22T12:13:02.255Z,5.65
2023-01-22T12:15:41.233Z,1.52
2023-01-22T12:18:39.807Z,6.97
2023-01-22T12:21:10.939Z,6.55
2023-01-22T12:23:43.574Z,2.20
2023-01-22T12:26:18.176Z,4.40
2023-01-22T12:28:52.248Z,5.55
2023-01-22T12:31:25.207Z,4.25
2023-01-22T12:33:53.451Z,4.03
2023-01-22T12:36:26.394Z,6.15
2023-01-22T12:39:01.013Z,3.92
2023-01-22T12:41:41.592Z,4.55
2023-01-22T12:44:18.992Z,6.00
2023-01-22T12:46:58.931Z,5.25
2023-01-22T12:49:28.383Z,6.85
2023-01-22T12:52:01.154Z,6.88
2023-01-22T12:54:32.501Z,4.50
2023-01-22T12:57:13.159Z,5.03
2023-01-22T12:59:48.134Z,8.25
2023-01-22T13:02:24.574Z,4.88
2023-01-22T13:04:53.000Z,6.60
2023-01-22T13:07:26.363Z,5.68
2023-01-22T13:10:02.786Z,4.90
2023-01-22T13:12:43.746Z,6.38
2023-01-22T13:15:19.305Z,4.88
2023-01-22T13:18:06.239Z,6.03
2023-01-22T13:20:37.477Z,6.50
2023-01-22T13:23:08.852Z,7.22
2023-01-22T13:25:36.946Z,4.95
2023-01-22T13:28:06.415Z,8.30
2023-01-22T13:30:34.952Z,7.18
2023-01-22T13:33:07.796Z,4.72
2023-01-22T13:35:42.977Z,4.82
2023-01-22T13:38:22.157Z,3.42
2023-01-22T13:40:54.445Z,6.07
2023-01-22T13:43:24.540Z,6.25
2023-01-22T13:45:54.668Z,7.65
2023-01-22T13:48:24.623Z,6.72
2023-01-22T13:50:56.837Z,7.13
2023-01-22T13:53:32.433Z,6.82
2023-01-22T13:56:01.229Z,6.22
2023-01-22T13:58:49.487Z,7.10
2023-01-22T14:01:30.548Z,5.75
2023-01-22T14:04:02.875Z,8.38
2023-01-22T14:06:32.137Z,7.15
2023-01-22T14:09:01.586Z,10.70
2023-01-22T14:11:39.818Z,7.60
2023-01-22T14:14:17.453Z,8.95
2023-01-22T14:16:45.661Z,6.45
2023-01-22T14:19:13.889Z,6.78
2023-01-22T14:21:42.442Z,4.65
2023-01-22T14:24:12.196Z,7.85
2023-01-22T14:26:40.506Z,8.40
2023-01-22T14:29:09.251Z,6.70
2023-01-22T14:31:37.526Z,7.82
2023-01-22T14:34:05.885Z,8.05
2023-01-22T14:36:34.021Z,6.57
2023-01-22T14:39:02.134Z,9.45
2023-01-22T14:41:31.651Z,9.15
2023-01-22T14:44:00.048Z,6.88
2023-01-22T14:46:28.165Z,6.57
2023-01-22T14:48:57.629Z,10.73
2023-01-22T14:51:26.028Z,9.05
2023-01-22T14:53:54.158Z,7.70
2023-01-22T14:56:22.550Z,10.80
2023-01-22T14:58:52.011Z,10.77
2023-01-22T15:01:22.327Z,12.35
2023-01-22T15:03:50.606Z,10.10
2023-01-22T15:06:18.997Z,7.97
2023-01-22T15:08:47.175Z,9.73
2023-01-22T15:11:15.680Z,9.20
2023-01-22T15:13:44.134Z,6.90
2023-01-22T15:16:13.675Z,7.75
2023-01-22T15:18:42.258Z,7.32
2023-01-22T15:21:11.254Z,6.75
2023-01-22T15:23:39.437Z,8.18
2023-01-22T15:26:09.503Z,9.45
2023-01-22T15:28:38.099Z,9.52
2023-01-22T15:31:07.858Z,8.02
2023-01-22T15:33:38.256Z,6.05
2023-01-22T15:36:07.562Z,7.47
2023-01-22T15:38:35.694Z,7.70
2023-01-22T15:41:05.723Z,6.95
2023-01-22T15:43:34.015Z,8.38
2023-01-22T15:46:02.205Z,10.60
2023-01-22T15:48:30.359Z,9.98
2023-01-22T15:51:09.053Z,9.65
2023-01-22T15:53:37.449Z,9.60
2023-01-22T15:56:06.493Z,12.52
2023-01-22T15:58:34.693Z,9.63
2023-01-22T16:01:03.040Z,9.05
2023-01-22T16:03:31.620Z,11.45
2023-01-22T16:06:10.542Z,7.72
2023-01-22T16:08:38.679Z,9.98
2023-01-22T16:11:07.019Z,9.77
2023-01-22T16:13:35.758Z,11.25
2023-01-22T16:16:06.696Z,11.63
2023-01-22T16:18:35.868Z,8.82
2023-01-22T16:21:05.115Z,7.38
2023-01-22T16:23:37.364Z,10.00
2023-01-22T16:26:07.614Z,12.95
2023-01-22T16:28:35.753Z,9.80
2023-01-22T16:31:05.275Z,12.15
2023-01-22T16:33:34.800Z,13.68
2023-01-22T16:36:05.863Z,11.73
2023-01-22T16:38:36.520Z,8.73
2023-01-22T16:41:25.308Z,12.52
2023-01-22T16:43:55.451Z,13.10
2023-01-22T16:46:25.919Z,10.25
2023-01-22T16:48:57.962Z,12.27
2023-01-22T16:51:28.068Z,10.82
2023-01-22T16:53:57.572Z,13.95
2023-01-22T16:56:25.754Z,15.38
2023-01-22T16:58:54.288Z,9.90
2023-01-22T17:01:22.748Z,10.32
2023-01-22T17:03:51.281Z,11.10
2023-01-22T17:06:24.207Z,10.57
2023-01-22T17:08:53.748Z,10.05
2023-01-22T17:11:23.623Z,14.73
2023-01-22T17:13:52.298Z,9.73
2023-01-22T17:16:20.948Z,14.15
2023-01-22T17:18:49.079Z,14.05
2023-01-22T17:21:19.568Z,18.35
2023-01-22T17:23:47.781Z,13.32
2023-01-22T17:26:17.786Z,16.10
2023-01-22T17:28:47.499Z,12.05
2023-01-22T17:31:17.520Z,16.30
2023-01-22T17:33:46.770Z,13.75
2023-01-22T17:36:16.937Z,15.70
2023-01-22T17:38:45.076Z,17.13
2023-01-22T17:41:16.086Z,13.07
2023-01-22T17:43:46.806Z,19.92
2023-01-22T17:46:18.135Z,19.55
2023-01-22T17:48:47.392Z,16.77
2023-01-22T17:51:17.535Z,14.18
2023-01-22T17:53:47.468Z,18.23
2023-01-22T17:56:18.699Z,16.08
2023-01-22T17:58:50.750Z,13.75
2023-01-22T18:01:20.940Z,15.30
2023-01-22T18:03:49.424Z,18.50
2023-01-22T18:06:18.183Z,19.13
2023-01-22T18:08:46.350Z,17.50
2023-01-22T18:11:16.933Z,20.80
2023-01-22T18:13:45.818Z,19.65
2023-01-22T18:16:17.152Z,20.00
2023-01-22T18:18:46.162Z,22.23
2023-01-22T18:21:16.440Z,16.92
2023-01-22T18:23:45.200Z,20.10
2023-01-22T18:26:15.055Z,18.50
2023-01-22T18:28:43.738Z,17.55
2023-01-22T18:31:15.648Z,21.88
2023-01-22T18:33:46.115Z,22.95
2023-01-22T18:36:17.115Z,19.55
2023-01-22T18:38:45.435Z,19.60
2023-01-22T18:41:16.263Z,13.82
2023-01-22T18:43:47.693Z,19.85
2023-01-22T18:46:18.242Z,14.90
2023-01-22T18:48:46.597Z,17.77
2023-01-22T18:51:15.123Z,16.33
2023-01-22T18:53:43.763Z,16.92
2023-01-22T18:56:13.503Z,19.33
2023-01-22T18:58:44.463Z,14.65
2023-01-22T19:01:14.905Z,14.32
2023-01-22T19:03:47.505Z,13.65
2023-01-22T19:06:17.943Z,21.23
2023-01-22T19:08:47.884Z,15.15
2023-01-22T19:11:17.950Z,14.05
2023-01-22T19:13:46.413Z,16.00
2023-01-22T19:16:16.835Z,14.68
2023-01-22T19:18:47.632Z,17.17
2023-01-22T19:21:18.268Z,16.60
2023-01-22T19:23:47.825Z,12.98
2023-01-22T19:26:19.381Z,17.90
2023-01-22T19:28:47.907Z,16.33
2023-01-22T19:31:17.517Z,15.45
2023-01-22T19:33:47.388Z,22.13
2023-01-22T19:36:15.586Z,21.27
2023-01-22T19:38:44.195Z,18.48
2023-01-22T19:41:13.184Z,13.75
2023-01-22T19:43:42.076Z,14.95
2023-01-22T19:46:13.534Z,18.23
2023-01-22T19:48:42.825Z,16.02
2023-01-22T19:51:16.344Z,12.68
2023-01-22T19:53:44.915Z,13.27
2023-01-22T19:56:18.433Z,18.35
2023-01-22T19:58:46.759Z,15.43
2023-01-22T20:01:16.136Z,16.88
2023-01-22T20:03:44.946Z,15.02
2023-01-22T20:06:15.686Z,16.80
2023-01-22T20:08:44.101Z,19.48
2023-01-22T20:11:14.133Z,17.48
2023-01-22T20:13:43.213Z,11.85
2023-01-22T20:16:19.431Z,17.85
2023-01-22T20:18:48.190Z,19.10
2023-01-22T20:21:18.913Z,17.08
2023-01-22T20:23:48.571Z,13.73
2023-01-22T20:26:18.471Z,13.35
2023-01-22T20:28:46.932Z,16.42
2023-01-22T20:31:19.899Z,14.20
2023-01-22T20:33:48.496Z,16.45
2023-01-22T20:36:19.762Z,16.85
2023-01-22T20:38:51.731Z,11.10
2023-01-22T20:41:21.287Z,13.95
2023-01-22T20:43:49.439Z,14.63
2023-01-22T20:46:20.349Z,12.23
2023-01-22T20:48:49.626Z,12.95
2023-01-22T20:51:20.933Z,11.63
2023-01-22T20:53:50.283Z,12.77
2023-01-22T20:56:22.641Z,9.95
2023-01-22T20:58:55.785Z,13.38
2023-01-22T21:01:24.132Z,14.82
2023-01-22T21:03:52.887Z,14.18
2023-01-22T21:06:22.519Z,13.10
2023-01-22T21:08:52.534Z,11.90
2023-01-22T21:11:22.008Z,11.38
2023-01-22T21:13:51.747Z,10.23
2023-01-22T21:16:23.171Z,15.15
2023-01-22T21:18:51.521Z,10.93
2023-01-22T21:21:22.204Z,14.95
2023-01-22T21:23:52.234Z,13.93
2023-01-22T21:26:23.236Z,14.32
2023-01-22T21:28:51.806Z,11.15
2023-01-22T21:31:21.608Z,15.65
2023-01-22T21:33:50.371Z,16.45
2023-01-22T21:36:18.890Z,16.20
2023-01-22T21:38:48.435Z,13.23
2023-01-22T21:41:18.708Z,13.15
2023-01-22T21:44:05.991Z,15.82
2023-01-22T21:46:36.959Z,19.38
2023-01-22T21:49:16.408Z,12.02
2023-01-22T21:51:46.300Z,15.23
2023-01-22T21:54:17.687Z,16.50
2023-01-22T21:56:45.945Z,10.32
2023-01-22T21:59:14.792Z,13.70
2023-01-22T22:01:45.216Z,18.83
2023-01-22T22:04:15.036Z,15.23
2023-01-22T22:06:43.652Z,14.18
2023-01-22T22:09:14.140Z,16.20
2023-01-22T22:11:44.239Z,12.00
2023-01-22T22:14:15.744Z,15.98
2023-01-22T22:16:44.172Z,12.43
2023-01-22T22:19:13.682Z,15.95
2023-01-22T22:21:41.958Z,11.90
2023-01-22T22:24:11.018Z,15.65
2023-01-22T22:26:40.012Z,14.13
2023-01-22T22:29:11.437Z,14.20
2023-01-22T22:31:39.949Z,16.27
2023-01-22T22:34:08.557Z,16.70
2023-01-22T22:36:36.754Z,14.43
2023-01-22T22:39:06.828Z,13.45
2023-01-22T22:41:38.601Z,19.98
2023-01-22T22:44:08.127Z,15.18
2023-01-22T22:46:39.516Z,17.08
2023-01-22T22:49:09.671Z,16.90
2023-01-22T22:51:41.589Z,15.20
2023-01-22T22:54:15.114Z,18.67
2023-01-22T22:56:44.600Z,15.95
2023-01-22T22:59:13.376Z,13.50
2023-01-22T23:01:43.160Z,14.88
2023-01-22T23:04:12.968Z,17.85
2023-01-22T23:06:44.970Z,17.58
2023-01-22T23:09:15.422Z,18.80
2023-01-22T23:11:43.881Z,18.40
2023-01-22T23:14:12.563Z,18.75
2023-01-22T23:16:44.461Z,17.73
2023-01-22T23:19:16.041Z,15.65
2023-01-22T23:21:44.245Z,17.02
2023-01-22T23:24:14.865Z,15.68
2023-01-22T23:26:44.627Z,19.95
2023-01-22T23:29:15.202Z,11.70
2023-01-22T23:31:45.050Z,16.42
2023-01-22T23:34:16.184Z,15.02
2023-01-22T23:36:46.401Z,11.90
2023-01-22T23:39:16.796Z,17.65
2023-01-22T23:41:45.455Z,14.73
2023-01-22T23:44:13.568Z,16.20
2023-01-22T23:46:42.890Z,14.95
2023-01-22T23:49:13.616Z,16.83
2023-01-22T23:51:44.305Z,19.52
2023-01-22T23:54:12.802Z,18.10
2023-01-22T23:56:41.372Z,20.60
2023-01-22T23:59:11.110Z,19.80
